Date,TemperatureHighF,TemperatureAvgF,TemperatureLowF,DewpointHighF,DewpointAvgF,DewpointLowF,HumidityHigh,HumidityAvg,HumidityLow,PressureMaxIn,PressureMinIn,WindSpeedMaxMPH,WindSpeedAvgMPH,GustSpeedMaxMPH,PrecipitationSumIn
2013-9-1,83,74,68,72,67,-100,95,83,65,29.79,29.70,3,0,8,0.15
2013-9-2,79,70,59,68,64,52,96,80,47,29.89,29.70,5,1,8,0.04
2013-9-3,76,64,57,58,54,50,90,71,49,30.01,29.88,4,1,7,0.04
2013-9-4,83,67,53,61,56,51,95,72,38,30.09,30.00,4,1,13,0.00
2013-9-5,72,62,55,58,51,39,94,70,34,30.23,30.06,5,1,10,0.00
2013-9-6,79,61,46,57,50,44,95,70,32,30.26,30.06,2,0,5,0.00
2013-9-7,84,68,56,68,58,47,85,71,51,30.06,29.87,4,0,10,0.00
2013-9-8,74,67,60,66,60,-100,92,80,61,30.03,29.90,5,1,12,0.00
2013-9-9,85,66,53,72,62,51,95,87,65,30.04,29.88,1,0,6,0.43
2013-9-10,98,84,74,74,69,63,89,65,34,29.99,29.89,5,1,13,0.01
2013-9-11,96,81,70,73,68,64,90,69,37,30.02,29.88,7,1,13,0.00
2013-9-12,80,70,58,68,62,51,95,77,43,29.93,29.80,5,1,11,0.09
2013-9-13,61,54,44,51,45,39,89,72,50,30.12,29.93,6,2,12,0.07
2013-9-14,71,52,37,48,41,35,95,70,35,30.20,30.10,2,0,6,0.00
2013-9-15,68,53,46,54,47,-100,94,83,49,30.13,30.01,4,0,6,0.11
2013-9-16,64,56,49,53,50,44,96,81,55,30.35,30.10,5,1,10,0.11
2013-9-17,66,52,39,52,45,37,95,78,50,30.38,30.21,4,1,12,0.01
2013-9-18,61,47,46,49,45,44,95,93,90,30.21,30.03,0,0,0,0.00
2013-9-19,83,68,60,68,63,57,94,85,61,30.03,29.90,3,0,9,0.00
2013-9-20,85,73,68,71,68,65,95,85,60,29.92,29.71,5,1,13,0.13
2013-9-21,70,63,54,67,55,46,95,78,45,29.85,29.66,5,1,9,0.36
2013-9-22,62,54,47,47,41,-100,86,65,48,30.06,29.84,4,1,12,0.03
2013-9-23,62,51,43,47,44,40,93,77,54,30.17,30.06,4,1,8,0.00
2013-9-24,65,51,38,50,44,37,96,80,51,30.14,29.98,6,0,11,0.00
2013-9-25,70,57,43,57,51,41,96,82,56,29.99,29.92,3,1,14,0.00
2013-9-26,76,59,42,58,49,41,96,75,36,30.11,29.97,3,0,10,0.01
2013-9-27,73,58,44,60,51,42,97,81,51,30.21,30.11,5,1,11,0.01
2013-9-28,80,62,44,60,53,43,97,75,39,30.18,30.00,2,0,14,0.01
2013-9-29,63,60,57,61,55,-100,96,86,68,30.01,29.94,2,0,5,0.01
2013-9-30,72,61,54,59,56,53,96,86,56,30.01,29.91,2,0,6,0.00